createdAt,value
2022-09-18T00:01:20.610Z,12.67
2022-09-18T00:03:47.582Z,12.69
2022-09-18T00:06:17.646Z,12.70
2022-09-18T00:08:44.278Z,12.72
2022-09-18T00:11:13.482Z,12.76
2022-09-18T00:13:41.572Z,12.72
2022-09-18T00:16:10.275Z,12.73
2022-09-18T00:18:36.853Z,12.73
2022-09-18T00:21:08.334Z,12.72
2022-09-18T00:23:34.832Z,12.71
2022-09-18T00:26:01.420Z,12.71
2022-09-18T00:28:28.419Z,12.74
2022-09-18T00:30:54.924Z,12.76
2022-09-18T00:33:21.361Z,12.73
2022-09-18T00:35:47.793Z,12.75
2022-09-18T00:38:14.182Z,12.79
2022-09-18T00:40:40.920Z,12.82
2022-09-18T00:43:26.157Z,12.84
2022-09-18T00:45:59.182Z,12.86
2022-09-18T00:48:51.423Z,12.89
2022-09-18T00:51:18.594Z,12.89
2022-09-18T00:53:53.455Z,12.87
2022-09-18T00:56:20.092Z,12.86
2022-09-18T00:58:46.878Z,12.88
2022-09-18T01:01:13.441Z,12.88
2022-09-18T01:03:39.842Z,12.84
2022-09-18T01:06:10.787Z,12.85
2022-09-18T01:09:09.041Z,12.83
2022-09-18T01:11:51.889Z,12.81
2022-09-18T01:14:36.430Z,12.81
2022-09-18T01:17:21.606Z,12.82
2022-09-18T01:20:13.979Z,12.81
2022-09-18T01:23:13.873Z,12.80
2022-09-18T01:26:30.912Z,12.79
2022-09-18T01:29:05.047Z,12.78
2022-09-18T01:31:44.864Z,12.76
2022-09-18T01:34:25.689Z,12.74
2022-09-18T01:36:57.455Z,12.68
2022-09-18T01:39:31.224Z,12.60
2022-09-18T01:41:59.233Z,12.54
2022-09-18T01:44:30.112Z,12.54
2022-09-18T01:47:02.872Z,12.52
2022-09-18T01:49:39.335Z,12.52
2022-09-18T01:52:18.042Z,12.49
2022-09-18T01:54:49.460Z,12.54
2022-09-18T01:57:25.726Z,12.55
2022-09-18T01:59:58.505Z,12.60
2022-09-18T02:02:35.118Z,12.65
2022-09-18T02:05:07.516Z,12.67
2022-09-18T02:07:48.974Z,12.67
2022-09-18T02:10:21.643Z,12.65
2022-09-18T02:12:48.474Z,12.64
2022-09-18T02:15:16.216Z,12.62
2022-09-18T02:17:59.067Z,12.61
2022-09-18T02:20:36.169Z,12.64
2022-09-18T02:23:06.701Z,12.65
2022-09-18T02:25:42.869Z,12.65
2022-09-18T02:28:11.353Z,12.65
2022-09-18T02:30:39.238Z,12.62
2022-09-18T02:33:23.610Z,12.63
2022-09-18T02:36:02.305Z,12.61
2022-09-18T02:38:40.937Z,12.62
2022-09-18T02:41:23.212Z,12.61
2022-09-18T02:43:57.225Z,12.61
2022-09-18T02:46:41.854Z,12.59
2022-09-18T02:49:38.161Z,12.41
2022-09-18T02:52:14.124Z,12.32
2022-09-18T02:54:49.737Z,12.37
2022-09-18T02:57:29.336Z,12.42
2022-09-18T03:00:00.342Z,12.48
2022-09-18T03:02:28.413Z,12.49
2022-09-18T03:04:55.948Z,12.50
2022-09-18T03:07:31.741Z,12.52
2022-09-18T03:09:58.971Z,12.53
2022-09-18T03:12:25.368Z,12.55
2022-09-18T03:14:51.787Z,12.53
2022-09-18T03:17:18.201Z,12.52
2022-09-18T03:19:45.786Z,12.53
2022-09-18T03:22:12.789Z,12.54
2022-09-18T03:24:39.201Z,12.54
2022-09-18T03:27:06.966Z,12.52
2022-09-18T03:29:33.734Z,12.51
2022-09-18T03:32:01.682Z,12.52
2022-09-18T03:34:28.601Z,12.51
2022-09-18T03:36:55.088Z,12.52
2022-09-18T03:39:21.462Z,12.54
2022-09-18T03:41:50.431Z,12.56
2022-09-18T03:44:17.057Z,12.56
2022-09-18T03:46:44.821Z,12.56
2022-09-18T03:49:11.402Z,12.48
2022-09-18T03:51:39.725Z,12.34
2022-09-18T03:54:07.113Z,12.29
2022-09-18T03:56:51.917Z,12.25
2022-09-18T03:59:29.874Z,12.30
2022-09-18T04:01:57.298Z,12.34
2022-09-18T04:04:27.605Z,12.38
2022-09-18T04:07:12.350Z,12.40
2022-09-18T04:09:45.042Z,12.41
2022-09-18T04:12:11.514Z,12.43
2022-09-18T04:14:38.760Z,12.44
2022-09-18T04:17:05.191Z,12.45
2022-09-18T04:19:31.582Z,12.46
2022-09-18T04:21:58.156Z,12.43
2022-09-18T04:24:24.767Z,12.41
2022-09-18T04:26:51.182Z,12.39
2022-09-18T04:29:20.734Z,12.40
2022-09-18T04:31:49.338Z,12.40
2022-09-18T04:34:17.101Z,12.42
2022-09-18T04:36:43.716Z,12.42
2022-09-18T04:39:10.330Z,12.44
2022-09-18T04:41:37.025Z,12.43
2022-09-18T04:44:04.911Z,12.42
2022-09-18T04:46:31.491Z,12.43
2022-09-18T04:48:59.701Z,12.43
2022-09-18T04:51:27.493Z,12.44
2022-09-18T04:53:54.192Z,12.43
2022-09-18T04:56:22.598Z,12.44
2022-09-18T04:58:51.354Z,12.40
2022-09-18T05:01:18.216Z,12.35
2022-09-18T05:03:44.658Z,12.25
2022-09-18T05:06:18.929Z,12.12
2022-09-18T05:08:45.758Z,12.10
2022-09-18T05:11:12.177Z,12.16
2022-09-18T05:13:40.001Z,12.17
2022-09-18T05:16:12.816Z,12.19
2022-09-18T05:18:41.553Z,12.18
2022-09-18T05:21:08.068Z,12.24
2022-09-18T05:23:34.765Z,12.27
2022-09-18T05:26:02.431Z,12.32
2022-09-18T05:28:28.822Z,12.34
2022-09-18T05:31:00.921Z,12.38
2022-09-18T05:33:41.613Z,12.40
2022-09-18T05:36:08.756Z,12.40
2022-09-18T05:38:35.784Z,12.38
2022-09-18T05:41:04.585Z,12.41
2022-09-18T05:43:30.991Z,12.42
2022-09-18T05:45:57.800Z,12.42
2022-09-18T05:48:35.081Z,12.44
2022-09-18T05:51:01.675Z,12.46
2022-09-18T05:53:28.337Z,12.47
2022-09-18T05:56:02.569Z,12.49
2022-09-18T05:58:30.087Z,12.49
2022-09-18T06:00:58.604Z,12.46
2022-09-18T06:03:31.813Z,12.44
2022-09-18T06:06:00.071Z,12.41
2022-09-18T06:08:26.478Z,12.42
2022-09-18T06:10:54.610Z,12.39
2022-09-18T06:13:21.343Z,12.35
2022-09-18T06:15:52.325Z,12.35
2022-09-18T06:18:31.510Z,12.35
2022-09-18T06:21:00.206Z,12.38
2022-09-18T06:23:29.309Z,12.42
2022-09-18T06:26:06.017Z,12.46
2022-09-18T06:28:34.738Z,12.48
2022-09-18T06:31:04.249Z,12.49
2022-09-18T06:33:42.333Z,12.51
2022-09-18T06:36:13.863Z,12.52
2022-09-18T06:38:51.713Z,12.53
2022-09-18T06:41:18.207Z,12.53
2022-09-18T06:43:50.188Z,12.55
2022-09-18T06:46:31.320Z,12.57
2022-09-18T06:49:04.765Z,12.62
2022-09-18T06:51:31.165Z,12.63
2022-09-18T06:54:04.537Z,12.63
2022-09-18T06:56:31.418Z,12.63
2022-09-18T06:58:57.925Z,12.58
2022-09-18T07:01:24.484Z,12.49
2022-09-18T07:04:03.261Z,12.41
2022-09-18T07:06:39.654Z,12.40
2022-09-18T07:09:06.111Z,12.42
2022-09-18T07:11:50.976Z,12.45
2022-09-18T07:14:17.524Z,12.49
2022-09-18T07:16:44.049Z,12.52
2022-09-18T07:19:11.993Z,12.56
2022-09-18T07:21:39.458Z,12.59
2022-09-18T07:24:06.282Z,12.61
2022-09-18T07:26:32.810Z,12.64
2022-09-18T07:28:59.262Z,12.62
2022-09-18T07:31:30.665Z,12.63
2022-09-18T07:33:57.426Z,12.58
2022-09-18T07:36:27.855Z,12.58
2022-09-18T07:38:54.273Z,12.56
2022-09-18T07:41:23.933Z,12.54
2022-09-18T07:43:50.933Z,12.52
2022-09-18T07:46:17.988Z,12.50
2022-09-18T07:48:47.279Z,12.51
2022-09-18T07:51:25.982Z,12.49
2022-09-18T07:53:53.455Z,12.46
2022-09-18T07:56:30.654Z,12.47
2022-09-18T07:58:57.316Z,12.51
2022-09-18T08:01:25.770Z,12.57
2022-09-18T08:03:55.341Z,12.60
2022-09-18T08:06:24.430Z,12.59
2022-09-18T08:09:04.673Z,12.62
2022-09-18T08:11:54.174Z,12.66
2022-09-18T08:14:29.112Z,12.75
2022-09-18T08:17:09.051Z,12.82
2022-09-18T08:20:01.667Z,12.87
2022-09-18T08:22:54.407Z,12.91
2022-09-18T08:25:26.502Z,12.96
2022-09-18T08:27:53.525Z,12.96
2022-09-18T08:30:32.511Z,13.00
2022-09-18T08:33:05.115Z,12.95
2022-09-18T08:35:32.194Z,12.90
2022-09-18T08:38:05.365Z,12.84
2022-09-18T08:41:08.970Z,12.81
2022-09-18T08:43:46.130Z,12.74
2022-09-18T08:46:18.258Z,12.74
2022-09-18T08:49:07.310Z,12.77
2022-09-18T08:51:52.135Z,12.78
2022-09-18T08:54:56.058Z,12.78
2022-09-18T08:57:39.113Z,12.88
2022-09-18T09:00:23.550Z,12.93
2022-09-18T09:03:24.937Z,12.97
2022-09-18T09:05:58.130Z,12.95
2022-09-18T09:08:42.597Z,12.96
2022-09-18T09:11:21.065Z,12.83
2022-09-18T09:14:04.644Z,12.80
2022-09-18T09:16:45.703Z,12.70
2022-09-18T09:19:31.190Z,12.72
2022-09-18T09:22:18.168Z,12.72
2022-09-18T09:24:44.997Z,12.69
2022-09-18T09:27:44.506Z,12.73
2022-09-18T09:30:35.646Z,12.72
2022-09-18T09:33:35.200Z,12.75
2022-09-18T09:36:20.627Z,12.75
2022-09-18T09:38:54.453Z,12.70
2022-09-18T09:41:39.353Z,12.72
2022-09-18T09:44:15.026Z,12.75
2022-09-18T09:47:18.394Z,12.80
2022-09-18T09:50:03.677Z,12.92
2022-09-18T09:52:32.923Z,12.94
2022-09-18T09:55:23.520Z,12.98
2022-09-18T09:58:12.582Z,12.98
2022-09-18T10:01:03.217Z,12.93
2022-09-18T10:03:54.708Z,12.90
2022-09-18T10:06:32.907Z,13.00
2022-09-18T10:09:18.727Z,13.00
2022-09-18T10:12:18.395Z,12.97
2022-09-18T10:14:51.001Z,12.98
2022-09-18T10:17:19.888Z,12.84
2022-09-18T10:19:48.069Z,12.70
2022-09-18T10:22:19.041Z,12.65
2022-09-18T10:25:05.474Z,12.55
2022-09-18T10:27:32.870Z,12.57
2022-09-18T10:30:08.618Z,12.59
2022-09-18T10:32:43.702Z,12.64
2022-09-18T10:35:44.377Z,12.73
2022-09-18T10:38:28.729Z,12.78
2022-09-18T10:40:56.854Z,12.81
2022-09-18T10:43:23.409Z,12.83
2022-09-18T10:45:56.047Z,12.84
2022-09-18T10:49:25.568Z,12.82
2022-09-18T10:52:54.237Z,12.85
2022-09-18T10:55:30.917Z,12.88
2022-09-18T10:58:13.354Z,12.89
2022-09-18T11:00:53.602Z,12.91
2022-09-18T11:03:33.066Z,12.86
2022-09-18T11:06:03.285Z,12.84
2022-09-18T11:08:35.099Z,12.80
2022-09-18T11:11:06.349Z,12.76
2022-09-18T11:13:48.474Z,12.77
2022-09-18T11:16:27.939Z,12.78
2022-09-18T11:22:54.667Z,12.86
2022-09-18T11:25:28.853Z,12.83
2022-09-18T11:28:30.101Z,12.84
2022-09-18T11:31:02.813Z,12.85
2022-09-18T11:34:00.854Z,12.85
2022-09-18T11:36:35.154Z,12.90
2022-09-18T11:39:13.605Z,12.92
2022-09-18T11:41:41.845Z,12.94
2022-09-18T11:44:24.514Z,12.96
2022-09-18T11:47:17.359Z,13.01
2022-09-18T11:49:55.374Z,13.02
2022-09-18T11:52:40.850Z,13.05
2022-09-18T11:55:19.893Z,13.08
2022-09-18T11:58:13.867Z,13.13
2022-09-18T12:00:45.209Z,13.15
2022-09-18T12:03:15.102Z,13.11
2022-09-18T12:05:51.346Z,13.12
2022-09-18T12:08:36.873Z,13.10
2022-09-18T12:11:34.610Z,13.04
2022-09-18T12:14:15.584Z,12.99
2022-09-18T12:17:03.350Z,12.97
2022-09-18T12:19:39.363Z,12.97
2022-09-18T12:22:35.905Z,12.96
2022-09-18T12:25:17.244Z,12.93
2022-09-18T12:28:28.722Z,12.92
2022-09-18T12:31:19.052Z,12.92
2022-09-18T12:34:20.259Z,12.92
2022-09-18T12:37:04.825Z,12.91
2022-09-18T12:40:10.256Z,12.85
2022-09-18T12:42:54.369Z,12.82
2022-09-18T12:45:29.998Z,12.82
2022-09-18T12:48:28.381Z,12.77
2022-09-18T12:51:17.688Z,12.75
2022-09-18T12:53:56.447Z,12.66
2022-09-18T12:56:42.937Z,12.56
2022-09-18T12:59:32.273Z,12.54
2022-09-18T13:02:20.290Z,12.59
2022-09-18T13:05:28.077Z,12.68
2022-09-18T13:08:05.348Z,12.73
2022-09-18T13:10:46.965Z,12.78
2022-09-18T13:13:32.906Z,12.82
2022-09-18T13:16:04.893Z,12.86
2022-09-18T13:18:52.828Z,12.90
2022-09-18T13:21:37.355Z,12.92
2022-09-18T13:24:06.020Z,12.93
2022-09-18T13:26:37.626Z,12.95
2022-09-18T13:29:25.620Z,12.93
2022-09-18T13:31:55.033Z,12.97
2022-09-18T13:34:22.728Z,12.94
2022-09-18T13:36:49.336Z,12.92
2022-09-18T13:39:20.453Z,12.93
2022-09-18T13:41:51.557Z,12.97
2022-09-18T13:44:21.180Z,12.97
2022-09-18T13:46:50.061Z,12.99
2022-09-18T13:49:30.091Z,12.96
2022-09-18T13:51:56.880Z,12.91
2022-09-18T13:54:28.710Z,12.83
2022-09-18T13:57:15.077Z,12.77
2022-09-18T13:59:44.258Z,12.68
2022-09-18T14:02:43.162Z,12.58
2022-09-18T14:05:35.408Z,12.54
2022-09-18T14:08:09.684Z,12.60
2022-09-18T14:10:59.790Z,12.59
2022-09-18T14:13:42.749Z,12.57
2022-09-18T14:16:22.144Z,12.63
2022-09-18T14:18:48.470Z,12.66
2022-09-18T14:21:14.847Z,12.63
2022-09-18T14:23:45.292Z,12.64
2022-09-18T14:26:37.502Z,12.62
2022-09-18T14:29:16.384Z,12.61
2022-09-18T14:31:51.679Z,12.58
2022-09-18T14:34:27.091Z,12.57
2022-09-18T14:37:00.613Z,12.54
2022-09-18T14:39:37.638Z,12.54
2022-09-18T14:42:24.634Z,12.55
2022-09-18T14:44:57.546Z,12.54
2022-09-18T14:47:26.732Z,12.53
2022-09-18T14:49:53.831Z,12.54
2022-09-18T14:52:29.782Z,12.54
2022-09-18T14:54:59.159Z,12.55
2022-09-18T14:57:40.197Z,12.53
2022-09-18T15:00:08.081Z,12.54
2022-09-18T15:02:37.843Z,12.48
2022-09-18T15:05:12.339Z,12.49
2022-09-18T15:07:39.905Z,12.45
2022-09-18T15:10:09.386Z,12.40
2022-09-18T15:12:36.949Z,12.35
2022-09-18T15:15:39.939Z,12.31
2022-09-18T15:18:27.364Z,12.14
2022-09-18T15:20:59.116Z,12.02
2022-09-18T15:23:32.257Z,11.93
2022-09-18T15:26:02.602Z,11.92
2022-09-18T15:28:35.189Z,11.94
2022-09-18T15:31:06.338Z,11.89
2022-09-18T15:33:34.950Z,11.95
2022-09-18T15:36:04.445Z,11.90
2022-09-18T15:38:42.915Z,11.81
2022-09-18T15:41:37.794Z,11.76
2022-09-18T15:44:05.985Z,11.75
2022-09-18T15:46:37.208Z,11.74
2022-09-18T15:49:28.082Z,11.71
2022-09-18T15:51:54.642Z,11.74
2022-09-18T15:54:20.957Z,11.82
2022-09-18T15:56:59.440Z,11.88
2022-09-18T15:59:33.233Z,11.97
2022-09-18T16:02:07.244Z,12.01
2022-09-18T16:04:35.409Z,12.04
2022-09-18T16:07:06.422Z,12.02
2022-09-18T16:09:36.028Z,12.06
2022-09-18T16:12:26.518Z,12.11
2022-09-18T16:15:18.631Z,12.08
2022-09-18T16:17:44.963Z,12.04
2022-09-18T16:20:33.895Z,12.03
2022-09-18T16:23:24.148Z,12.00
2022-09-18T16:26:11.061Z,11.92
2022-09-18T16:28:48.991Z,11.93
2022-09-18T16:31:18.331Z,11.95
2022-09-18T16:33:55.422Z,11.99
2022-09-18T16:36:27.358Z,12.02
2022-09-18T16:38:55.189Z,12.06
2022-09-18T16:41:22.079Z,12.09
2022-09-18T16:43:51.213Z,12.10
2022-09-18T16:46:20.613Z,12.08
2022-09-18T16:48:47.410Z,12.11
2022-09-18T16:51:13.855Z,12.12
2022-09-18T16:53:40.212Z,12.16
2022-09-18T16:56:10.878Z,12.15
2022-09-18T16:58:38.859Z,12.16
2022-09-18T17:01:05.470Z,12.17
2022-09-18T17:03:32.536Z,12.17
2022-09-18T17:06:01.915Z,12.17
2022-09-18T17:08:29.411Z,12.18
2022-09-18T17:10:56.176Z,12.18
2022-09-18T17:13:23.084Z,12.19
2022-09-18T17:15:49.616Z,12.18
2022-09-18T17:18:16.080Z,12.18
2022-09-18T17:20:42.774Z,12.17
2022-09-18T17:23:09.182Z,12.18
2022-09-18T17:25:35.569Z,12.17
2022-09-18T17:28:02.078Z,12.15
2022-09-18T17:30:28.437Z,12.13
2022-09-18T17:32:54.792Z,12.13
2022-09-18T17:35:21.403Z,12.12
2022-09-18T17:37:47.777Z,12.08
2022-09-18T17:40:14.259Z,12.06
2022-09-18T17:42:40.740Z,12.07
2022-09-18T17:45:07.536Z,11.98
2022-09-18T17:47:34.176Z,11.90
2022-09-18T17:50:01.534Z,11.87
2022-09-18T17:52:27.893Z,11.87
2022-09-18T17:54:54.305Z,11.87
2022-09-18T17:57:20.687Z,11.84
2022-09-18T17:59:47.995Z,11.83
2022-09-18T18:02:14.524Z,11.75
2022-09-18T18:04:40.959Z,11.77
2022-09-18T18:07:07.468Z,11.74
2022-09-18T18:09:37.485Z,11.79
2022-09-18T18:12:05.305Z,11.79
2022-09-18T18:14:32.890Z,11.74
2022-09-18T18:17:00.610Z,11.73
2022-09-18T18:19:27.777Z,11.69
2022-09-18T18:21:54.457Z,11.58
2022-09-18T18:24:21.364Z,11.58
2022-09-18T18:26:48.505Z,11.63
2022-09-18T18:29:17.633Z,11.68
2022-09-18T18:31:44.223Z,11.69
2022-09-18T18:34:11.646Z,11.75
2022-09-18T18:36:40.506Z,11.71
2022-09-18T18:39:11.840Z,11.69
2022-09-18T18:41:39.469Z,11.68
2022-09-18T18:44:06.273Z,11.66
2022-09-18T18:46:36.113Z,11.70
2022-09-18T18:49:08.851Z,11.64
2022-09-18T18:51:42.840Z,11.69
2022-09-18T18:54:09.753Z,11.73
2022-09-18T18:56:38.403Z,11.78
2022-09-18T18:59:06.990Z,11.77
2022-09-18T19:01:33.660Z,11.78
2022-09-18T19:04:03.377Z,11.76
2022-09-18T19:06:29.923Z,11.75
2022-09-18T19:09:01.792Z,11.70
2022-09-18T19:11:31.022Z,11.71
2022-09-18T19:13:57.545Z,11.75
2022-09-18T19:16:25.781Z,11.73
2022-09-18T19:18:54.151Z,11.78
2022-09-18T19:21:22.226Z,11.79
2022-09-18T19:23:52.469Z,11.83
2022-09-18T19:26:21.083Z,11.86
2022-09-18T19:28:52.150Z,11.81
2022-09-18T19:31:20.270Z,11.83
2022-09-18T19:33:52.288Z,11.86
2022-09-18T19:36:20.873Z,11.86
2022-09-18T19:38:55.114Z,11.87
2022-09-18T19:41:27.591Z,11.83
2022-09-18T19:43:54.018Z,11.80
2022-09-18T19:46:27.548Z,11.79
2022-09-18T19:48:54.555Z,11.80
2022-09-18T19:51:21.096Z,11.79
2022-09-18T19:53:47.490Z,11.80
2022-09-18T19:56:33.126Z,11.81
2022-09-18T19:59:00.305Z,11.84
2022-09-18T20:01:26.641Z,11.86
2022-09-18T20:03:53.878Z,11.85
2022-09-18T20:06:21.240Z,11.83
2022-09-18T20:08:47.667Z,11.86
2022-09-18T20:11:14.165Z,11.88
2022-09-18T20:13:40.557Z,11.87
2022-09-18T20:16:09.310Z,11.88
2022-09-18T20:18:36.197Z,11.90
2022-09-18T20:21:10.925Z,11.90
2022-09-18T20:23:38.204Z,11.84
2022-09-18T20:26:09.219Z,11.83
2022-09-18T20:28:36.511Z,11.83
2022-09-18T20:31:08.558Z,11.90
2022-09-18T20:33:35.260Z,11.92
2022-09-18T20:36:02.264Z,11.90
2022-09-18T20:38:32.743Z,11.94
2022-09-18T20:41:04.799Z,11.91
2022-09-18T20:43:33.148Z,11.92
2022-09-18T20:46:01.356Z,11.93
2022-09-18T20:48:33.022Z,11.94
2022-09-18T20:51:00.601Z,11.98
2022-09-18T20:53:28.203Z,11.99
2022-09-18T20:55:58.364Z,11.97
2022-09-18T20:58:25.398Z,12.01
2022-09-18T21:00:53.344Z,12.00
2022-09-18T21:03:21.033Z,12.00
2022-09-18T21:05:47.626Z,11.94
2022-09-18T21:08:14.065Z,11.93
2022-09-18T21:10:46.586Z,11.90
2022-09-18T21:13:15.244Z,11.95
2022-09-18T21:15:48.312Z,11.97
2022-09-18T21:18:15.784Z,11.99
2022-09-18T21:20:43.243Z,12.03
2022-09-18T21:23:29.812Z,12.05
2022-09-18T21:25:56.606Z,12.04
2022-09-18T21:28:23.004Z,12.03
2022-09-18T21:30:49.377Z,12.04
2022-09-18T21:33:15.838Z,12.04
2022-09-18T21:35:54.697Z,12.06
2022-09-18T21:38:21.034Z,12.06
2022-09-18T21:40:47.898Z,12.07
2022-09-18T21:43:15.481Z,12.07
2022-09-18T21:45:41.932Z,12.08
2022-09-18T21:48:08.984Z,12.07
2022-09-18T21:50:36.373Z,12.07
2022-09-18T21:53:02.818Z,12.05
2022-09-18T21:55:33.586Z,12.02
2022-09-18T21:57:59.961Z,12.05
2022-09-18T22:00:26.351Z,12.07
2022-09-18T22:02:53.510Z,12.07
2022-09-18T22:05:20.598Z,12.08
2022-09-18T22:07:47.224Z,12.08
2022-09-18T22:10:14.596Z,12.10
2022-09-18T22:12:41.147Z,12.12
2022-09-18T22:15:08.058Z,12.12
2022-09-18T22:17:34.392Z,12.15
2022-09-18T22:20:00.842Z,12.16
2022-09-18T22:22:27.328Z,12.12
2022-09-18T22:24:53.736Z,12.18
2022-09-18T22:27:20.087Z,12.13
2022-09-18T22:29:46.545Z,12.14
2022-09-18T22:32:12.915Z,12.16
2022-09-18T22:34:41.502Z,12.16
2022-09-18T22:37:09.640Z,12.20
2022-09-18T22:39:36.007Z,12.18
2022-09-18T22:42:02.492Z,12.17
2022-09-18T22:44:28.850Z,12.15
2022-09-18T22:46:55.336Z,12.15
2022-09-18T22:49:23.364Z,12.14
2022-09-18T22:51:50.616Z,12.16
2022-09-18T22:54:23.387Z,12.17
2022-09-18T22:56:51.666Z,12.12
2022-09-18T22:59:20.951Z,12.10
2022-09-18T23:01:51.953Z,12.12
2022-09-18T23:04:21.251Z,12.15
2022-09-18T23:06:48.328Z,12.11
2022-09-18T23:09:16.295Z,12.16
2022-09-18T23:11:44.614Z,12.21
2022-09-18T23:14:17.029Z,12.22
2022-09-18T23:16:43.728Z,12.19
2022-09-18T23:19:16.813Z,12.19
2022-09-18T23:21:43.326Z,12.17
2022-09-18T23:24:10.609Z,12.18
2022-09-18T23:26:39.799Z,12.22
2022-09-18T23:29:09.289Z,12.21
2022-09-18T23:31:38.711Z,12.21
2022-09-18T23:34:08.342Z,12.25
2022-09-18T23:36:37.809Z,12.30
2022-09-18T23:39:25.376Z,12.33
2022-09-18T23:41:52.298Z,12.34
2022-09-18T23:44:20.365Z,12.36
2022-09-18T23:46:47.489Z,12.37
2022-09-18T23:49:15.161Z,12.35
2022-09-18T23:51:46.081Z,12.36
2022-09-18T23:54:18.972Z,12.37
2022-09-18T23:56:46.673Z,12.42
2022-09-18T23:59:14.537Z,12.48
